Forside
METAR-TAF:

METAR-TAF

Lufthavne :

Ann Arbor, Michigan, USA

Breddekreds: 42-13-26N, længdekreds: 083-44-24W, højde: 255 m

Aktuelle vejr

Denne rapport blev lavet for 28 minutter siden, kl. 13:53 UTC
Vind 6 kt fra nordøst
Temperatur 4°C
Fugtighed 87%
Tryk 1016 hPa
Sigt: 12.9 km
Overskyet i en højde af 1000 ft

METAR: KARB 311353Z 05006KT 8SM OVC010 04/02 A3000 RMK AO2 SLP166 T00390017

Tid: 10:21 (14:21 UTC)


TAF: fraværende

Vejrobservationer og prognoser fra mere end 4000 lufthavne (METAR og TAF).

De gule og røde prikker repræsenterer de meteorologiske stationer.

Flyt musen over at se navnet på stationen.

Så klik over at se vejr observationer og prognoser.

At skifte det kort: Klik på de grønne knapper med et sort kors for at zoome ind; på den grønne knap med en bindestreg for at zoome ud; eller på de grønne pile for tilstødende kort.


METAR-TAF: